Time;durP1;ratioP1;P1;durP2;ratioP2;P2;SDS_P1;SDS_P2;PMS_P1;PMS_P2;Temp;Humidity;BMP_temperature;BMP_pressure;BME280_temperature;BME280_humidity;BME280_pressure;Samples;Min_cycle;Max_cycle;Signal;HPM_P1;HPM_P2
2023/05/17 00:00:19;;;;;;;4.80;1.90;;;8.70;99.90;;;;;;5091794;28;20178;-76
2023/05/17 00:02:45;;;;;;;8.63;2.37;;;8.70;99.90;;;;;;5092849;28;20194;-76
2023/05/17 00:05:10;;;;;;;6.07;2.37;;;8.70;99.90;;;;;;5092806;28;20197;-76
2023/05/17 00:07:36;;;;;;;6.93;2.03;;;8.60;99.90;;;;;;5092891;28;20634;-76
2023/05/17 00:10:02;;;;;;;4.27;2.00;;;8.60;99.90;;;;;;5092869;28;20181;-76
2023/05/17 00:12:27;;;;;;;7.10;2.30;;;8.60;99.90;;;;;;5091222;28;20182;-76
2023/05/17 00:14:53;;;;;;;4.30;1.70;;;8.60;99.90;;;;;;5091267;28;20740;-76
2023/05/17 00:17:18;;;;;;;3.33;1.87;;;8.50;99.90;;;;;;5092853;28;20174;-76
2023/05/17 00:19:44;;;;;;;4.97;1.80;;;8.50;99.90;;;;;;5092649;28;20180;-76
2023/05/17 00:22:09;;;;;;;3.87;1.77;;;8.50;99.90;;;;;;5092377;28;20194;-75
2023/05/17 00:24:35;;;;;;;7.17;1.90;;;8.50;99.90;;;;;;5092073;28;20221;-76
2023/05/17 00:27:01;;;;;;;4.57;1.70;;;8.40;99.90;;;;;;5091032;28;20718;-76
2023/05/17 00:29:26;;;;;;;5.00;1.97;;;8.40;99.90;;;;;;5092392;28;20174;-76
2023/05/17 00:31:52;;;;;;;4.33;2.20;;;8.40;99.90;;;;;;5092573;28;20177;-76
2023/05/17 00:34:17;;;;;;;6.03;1.83;;;8.30;99.90;;;;;;5092431;28;20568;-76
2023/05/17 00:36:43;;;;;;;4.77;1.80;;;8.30;99.90;;;;;;5092610;28;20167;-76
2023/05/17 00:39:08;;;;;;;4.77;2.00;;;8.30;99.90;;;;;;5092473;28;20537;-76
2023/05/17 00:41:34;;;;;;;5.00;1.77;;;8.30;99.90;;;;;;5092614;28;20607;-76
2023/05/17 00:44:00;;;;;;;6.23;2.13;;;8.30;99.90;;;;;;5091096;28;20595;-76
2023/05/17 00:46:25;;;;;;;6.60;1.90;;;8.20;99.90;;;;;;5092434;28;20269;-76
2023/05/17 00:48:51;;;;;;;3.60;1.60;;;8.20;99.90;;;;;;5091318;28;20261;-76
2023/05/17 00:51:18;;;;;;;5.03;1.90;;;8.20;99.90;;;;;;5092324;28;20171;-76
2023/05/17 00:53:44;;;;;;;4.73;1.80;;;8.20;99.90;;;;;;5090860;28;20208;-76
2023/05/17 00:56:10;;;;;;;3.57;2.00;;;8.10;99.90;;;;;;5091103;28;20277;-76
2023/05/17 00:58:36;;;;;;;7.13;2.10;;;8.10;99.90;;;;;;5091162;28;20216;-76
2023/05/17 01:01:02;;;;;;;6.93;2.10;;;8.10;99.90;;;;;;5092302;28;20619;-76
2023/05/17 01:03:28;;;;;;;5.97;2.17;;;8.10;99.90;;;;;;5091089;28;20185;-75
2023/05/17 01:05:54;;;;;;;6.57;2.60;;;8.10;99.90;;;;;;5092335;28;20201;-76
2023/05/17 01:08:20;;;;;;;2.83;1.90;;;8.00;99.90;;;;;;5092403;28;20174;-76
2023/05/17 01:11:11;;;;;;;6.27;2.10;;;8.00;99.90;;;;;;5092563;28;20363;-76
2023/05/17 01:13:48;;;;;;;4.27;2.10;;;8.00;99.90;;;;;;5092122;28;20530;-76
2023/05/17 01:16:29;;;;;;;9.00;2.60;;;8.00;99.90;;;;;;5092486;28;20656;-76
2023/05/17 01:19:45;;;;;;;8.43;2.80;;;8.10;99.90;;;;;;5092422;28;20172;-76
2023/05/17 01:22:31;;;;;;;7.63;2.53;;;8.00;99.90;;;;;;5088901;28;20694;-76
2023/05/17 01:25:10;;;;;;;7.17;2.40;;;8.00;99.90;;;;;;5090658;28;20190;-76
2023/05/17 01:27:38;;;;;;;6.73;2.80;;;8.00;99.90;;;;;;5092081;28;20154;-75
2023/05/17 01:30:07;;;;;;;6.97;2.60;;;7.90;99.90;;;;;;5090790;28;20208;-75
2023/05/17 01:32:33;;;;;;;7.73;2.73;;;8.00;99.90;;;;;;5091898;28;20569;-76
2023/05/17 01:34:58;;;;;;;6.27;2.47;;;7.90;99.90;;;;;;5092098;28;20189;-76
2023/05/17 01:37:24;;;;;;;7.20;2.90;;;8.00;99.90;;;;;;5094335;28;20163;-76
2023/05/17 01:39:49;;;;;;;2.90;2.40;;;7.90;99.90;;;;;;5095589;28;20169;-76
2023/05/17 01:42:40;;;;;;;11.47;3.20;;;7.90;99.90;;;;;;5095662;28;20245;-76
2023/05/17 01:45:16;;;;;;;7.47;2.77;;;7.90;99.90;;;;;;5095290;28;20277;-75
2023/05/17 01:47:51;;;;;;;6.47;2.90;;;7.90;99.90;;;;;;5095414;28;20161;-76
2023/05/17 01:50:24;;;;;;;4.30;2.30;;;7.90;99.90;;;;;;5093853;28;20260;-75
2023/05/17 01:52:58;;;;;;;4.73;2.20;;;7.80;99.90;;;;;;5095420;28;20179;-76
2023/05/17 01:55:30;;;;;;;4.30;2.50;;;7.80;99.90;;;;;;5095169;28;20192;-75
2023/05/17 01:57:56;;;;;;;6.00;2.23;;;7.80;99.90;;;;;;5095435;28;20166;-76
2023/05/17 02:00:24;;;;;;;8.80;2.90;;;7.70;99.90;;;;;;5095146;28;20166;-76
2023/05/17 02:02:50;;;;;;;11.10;2.93;;;7.70;99.90;;;;;;5093818;28;20693;-75
2023/05/17 02:05:15;;;;;;;7.87;2.93;;;7.80;99.90;;;;;;5095417;28;20194;-75
2023/05/17 02:07:41;;;;;;;4.60;2.70;;;7.70;99.90;;;;;;5095003;28;20200;-75
2023/05/17 02:10:07;;;;;;;8.17;3.17;;;7.70;99.90;;;;;;5093663;28;20661;-75
2023/05/17 02:12:32;;;;;;;5.33;2.87;;;7.70;99.90;;;;;;5094842;28;20177;-76
2023/05/17 02:14:58;;;;;;;5.23;2.97;;;7.60;99.90;;;;;;5094825;28;20186;-76
2023/05/17 02:17:23;;;;;;;14.67;4.23;;;7.60;99.90;;;;;;5093589;28;20189;-76
2023/05/17 02:19:49;;;;;;;6.37;2.90;;;7.60;99.90;;;;;;5094733;28;20177;-75
2023/05/17 02:22:15;;;;;;;7.87;3.30;;;7.60;99.90;;;;;;5094833;28;20186;-75
2023/05/17 02:24:40;;;;;;;4.53;2.90;;;7.60;99.90;;;;;;5095008;28;20689;-76
2023/05/17 02:27:06;;;;;;;7.03;3.07;;;7.50;99.90;;;;;;5094697;28;20169;-76
2023/05/17 02:29:32;;;;;;;4.83;2.90;;;7.50;99.90;;;;;;5094715;28;20190;-76
2023/05/17 02:31:57;;;;;;;9.43;3.50;;;7.50;99.90;;;;;;5093287;28;20291;-75
2023/05/17 02:34:23;;;;;;;5.37;3.10;;;7.50;99.90;;;;;;5094300;28;20657;-75
2023/05/17 02:36:49;;;;;;;6.30;2.83;;;7.40;99.90;;;;;;5094560;28;20307;-75
2023/05/17 02:39:14;;;;;;;6.30;3.60;;;7.40;99.90;;;;;;5093265;28;20170;-75
2023/05/17 02:41:40;;;;;;;10.17;3.40;;;7.40;99.90;;;;;;5094546;28;20188;-75
2023/05/17 02:44:05;;;;;;;9.53;3.10;;;7.30;99.90;;;;;;5094396;28;20174;-74
2023/05/17 02:46:31;;;;;;;9.43;3.20;;;7.30;99.90;;;;;;5094162;28;20189;-75
2023/05/17 02:48:56;;;;;;;7.53;2.80;;;7.30;99.90;;;;;;5094208;28;20175;-75
2023/05/17 02:51:22;;;;;;;6.73;3.13;;;7.20;99.90;;;;;;5094884;28;20300;-75
2023/05/17 02:53:48;;;;;;;7.23;3.33;;;7.20;99.90;;;;;;5094303;28;20267;-76
2023/05/17 02:56:13;;;;;;;7.50;3.27;;;7.20;99.90;;;;;;5092685;28;20236;-75
2023/05/17 02:58:39;;;;;;;5.40;3.20;;;7.20;99.90;;;;;;5094412;28;20166;-75
2023/05/17 03:01:04;;;;;;;7.50;3.33;;;7.10;99.90;;;;;;5094137;28;20180;-74
2023/05/17 03:03:30;;;;;;;9.83;3.47;;;7.10;99.90;;;;;;5092624;28;20174;-75
2023/05/17 03:06:03;;;;;;;6.73;3.23;;;7.10;99.90;;;;;;5093837;28;20571;-75
2023/05/17 03:08:30;;;;;;;8.60;2.83;;;7.10;99.90;;;;;;5094189;28;20317;-75
2023/05/17 03:10:55;;;;;;;4.53;2.80;;;7.10;99.90;;;;;;5094063;28;20713;-75
2023/05/17 03:13:21;;;;;;;6.43;2.67;;;7.00;99.90;;;;;;5093518;28;20281;-75
2023/05/17 03:15:46;;;;;;;5.73;2.90;;;7.00;99.90;;;;;;5094646;28;20674;-78
2023/05/17 03:18:12;;;;;;;5.73;2.50;;;7.00;99.90;;;;;;5094128;28;20176;-75
2023/05/17 03:20:37;;;;;;;4.20;2.77;;;7.00;99.90;;;;;;5093753;28;20166;-75
2023/05/17 03:23:03;;;;;;;5.40;2.73;;;6.90;99.90;;;;;;5093453;28;20193;-76
2023/05/17 03:25:28;;;;;;;7.33;3.10;;;7.00;99.90;;;;;;5092508;28;20205;-75
2023/05/17 03:27:54;;;;;;;7.23;3.30;;;7.00;99.90;;;;;;5093543;28;20658;-76
2023/05/17 03:30:19;;;;;;;11.27;2.87;;;6.90;99.90;;;;;;5093391;28;20262;-75
2023/05/17 03:32:45;;;;;;;6.37;2.87;;;6.90;99.90;;;;;;5092601;28;20334;-76
2023/05/17 03:35:11;;;;;;;4.17;2.87;;;6.90;99.90;;;;;;5093578;28;20197;-75
2023/05/17 03:37:36;;;;;;;9.20;3.73;;;6.90;99.90;;;;;;5093521;28;20166;-75
2023/05/17 03:40:02;;;;;;;10.07;3.40;;;6.90;99.90;;;;;;5093390;28;20167;-75
2023/05/17 03:42:28;;;;;;;4.90;3.17;;;6.90;99.90;;;;;;5093684;28;20166;-76
2023/05/17 03:44:53;;;;;;;7.87;3.10;;;7.00;99.90;;;;;;5091877;28;20213;-76
2023/05/17 03:47:22;;;;;;;7.83;3.40;;;7.00;99.90;;;;;;5092055;28;20166;-76
2023/05/17 03:49:48;;;;;;;8.30;3.63;;;7.00;99.90;;;;;;5093391;28;20283;-75
2023/05/17 03:52:13;;;;;;;5.80;2.97;;;7.10;99.90;;;;;;5108923;28;20183;-75
2023/05/17 03:54:39;;;;;;;7.30;3.30;;;7.10;99.90;;;;;;5092001;28;20234;-75
2023/05/17 03:57:05;;;;;;;5.30;3.30;;;7.10;99.90;;;;;;5093675;28;20249;-76
2023/05/17 03:59:30;;;;;;;8.80;3.67;;;7.20;99.90;;;;;;5093253;28;20540;-76
2023/05/17 04:01:56;;;;;;;4.50;3.33;;;7.20;99.90;;;;;;5094280;28;20174;-76
2023/05/17 04:04:21;;;;;;;11.47;3.97;;;7.30;99.90;;;;;;5093444;28;20241;-76
2023/05/17 04:06:47;;;;;;;8.23;4.13;;;7.40;99.90;;;;;;5093674;28;20238;-75
2023/05/17 04:09:14;;;;;;;7.30;4.00;;;7.40;99.90;;;;;;5092369;28;20265;-75
2023/05/17 04:11:40;;;;;;;8.90;4.30;;;7.50;99.90;;;;;;5093325;28;20539;-76
2023/05/17 04:14:06;;;;;;;7.70;4.67;;;7.50;99.90;;;;;;5093228;28;20194;-75
2023/05/17 04:16:31;;;;;;;9.50;4.50;;;7.60;99.90;;;;;;5093600;28;20656;-76
2023/05/17 04:18:59;;;;;;;7.80;4.07;;;7.70;99.90;;;;;;5093129;28;20207;-73
2023/05/17 04:21:24;;;;;;;10.20;4.10;;;7.80;99.90;;;;;;5093827;28;20166;-75
2023/05/17 04:23:50;;;;;;;11.03;4.33;;;7.80;99.90;;;;;;5093541;28;20189;-74
2023/05/17 04:26:16;;;;;;;7.93;3.83;;;7.90;99.90;;;;;;5092747;28;20297;-75
2023/05/17 04:28:42;;;;;;;8.73;4.27;;;7.90;99.90;;;;;;5094408;28;20178;-75
2023/05/17 04:31:08;;;;;;;11.67;4.20;;;7.90;99.90;;;;;;5092573;28;20302;-74
2023/05/17 04:33:34;;;;;;;8.27;4.33;;;7.90;99.90;;;;;;5092275;28;20198;-76
2023/05/17 04:35:59;;;;;;;9.30;4.37;;;8.00;99.90;;;;;;5092683;28;20197;-75
2023/05/17 04:38:25;;;;;;;10.83;4.73;;;8.00;99.90;;;;;;5094411;28;20162;-76
2023/05/17 04:40:51;;;;;;;11.50;4.67;;;8.10;99.90;;;;;;5094111;28;20166;-76
2023/05/17 04:43:16;;;;;;;12.57;5.57;;;8.10;99.90;;;;;;5092409;28;20182;-76
2023/05/17 04:45:42;;;;;;;17.40;6.27;;;8.20;99.90;;;;;;5093070;28;20614;-76
2023/05/17 04:48:08;;;;;;;12.53;4.70;;;8.30;99.90;;;;;;5092203;28;20227;-75
2023/05/17 04:50:34;;;;;;;7.53;4.00;;;8.30;99.90;;;;;;5093512;28;20653;-76
2023/05/17 04:53:00;;;;;;;11.10;4.80;;;8.40;99.90;;;;;;5093011;28;20281;-76
2023/05/17 04:55:25;;;;;;;18.67;6.10;;;8.40;99.90;;;;;;5092842;28;20713;-76
2023/05/17 04:57:51;;;;;;;12.43;5.27;;;8.40;99.90;;;;;;5092670;28;20666;-76
2023/05/17 05:00:17;;;;;;;11.47;5.33;;;8.40;99.90;;;;;;5095791;28;20170;-76
2023/05/17 05:02:43;;;;;;;11.97;4.87;;;8.40;99.90;;;;;;5107163;28;20182;-76
2023/05/17 05:05:10;;;;;;;12.27;5.50;;;8.50;99.90;;;;;;5096043;28;20204;-76
2023/05/17 05:07:36;;;;;;;15.47;5.83;;;8.50;99.90;;;;;;5093478;28;20174;-75
2023/05/17 05:10:02;;;;;;;19.27;7.93;;;8.50;99.90;;;;;;5107730;28;20690;-75
2023/05/17 05:12:28;;;;;;;13.47;6.43;;;8.50;99.90;;;;;;5094658;28;20170;-76
2023/05/17 05:14:53;;;;;;;16.80;8.97;;;8.60;99.90;;;;;;5095783;28;20233;-76
2023/05/17 05:17:19;;;;;;;18.63;8.07;;;8.60;99.90;;;;;;5096193;28;20181;-76
2023/05/17 05:19:44;;;;;;;22.83;8.30;;;8.60;99.90;;;;;;5095128;28;20167;-76
2023/05/17 05:22:10;;;;;;;20.77;9.23;;;8.70;99.90;;;;;;5096219;28;20269;-76
2023/05/17 05:24:36;;;;;;;23.83;9.63;;;8.70;99.90;;;;;;5094766;28;20194;-75
2023/05/17 05:27:02;;;;;;;26.10;9.70;;;8.80;99.90;;;;;;5094777;28;20174;-76
2023/05/17 05:29:27;;;;;;;22.53;8.87;;;8.80;99.90;;;;;;5095634;28;20182;-76
2023/05/17 05:31:53;;;;;;;18.60;8.90;;;8.90;99.90;;;;;;5097396;28;20547;-76
2023/05/17 05:34:18;;;;;;;22.50;10.23;;;8.90;99.90;;;;;;5102113;28;20206;-76
2023/05/17 05:36:44;;;;;;;31.07;10.93;;;9.00;99.90;;;;;;5102002;28;20182;-76
2023/05/17 05:39:11;;;;;;;23.77;10.97;;;9.10;99.90;;;;;;5096782;28;20243;-76
2023/05/17 05:41:36;;;;;;;23.20;10.70;;;9.10;99.90;;;;;;5094562;28;20311;-76
2023/05/17 05:44:02;;;;;;;28.30;9.70;;;9.10;99.90;;;;;;5095514;28;20643;-78
2023/05/17 05:46:28;;;;;;;17.23;8.63;;;9.20;99.90;;;;;;5095229;28;20178;-75
2023/05/17 05:48:53;;;;;;;23.80;6.67;;;9.30;99.90;;;;;;5095497;28;20635;-76
2023/05/17 05:51:19;;;;;;;21.60;7.77;;;9.20;99.90;;;;;;5095431;28;20658;-76
2023/05/17 05:53:44;;;;;;;23.10;6.63;;;9.30;99.90;;;;;;5095335;28;20214;-77
2023/05/17 05:56:10;;;;;;;18.67;5.40;;;9.40;99.90;;;;;;5093673;28;20209;-76
2023/05/17 05:58:36;;;;;;;14.50;4.47;;;9.40;99.90;;;;;;5095100;28;20177;-76
2023/05/17 06:01:01;;;;;;;16.60;5.00;;;9.40;99.90;;;;;;5094981;28;20170;-76
2023/05/17 06:03:27;;;;;;;12.83;3.83;;;9.50;99.90;;;;;;5094823;28;20173;-76
2023/05/17 06:05:53;;;;;;;11.93;2.90;;;9.50;99.90;;;;;;5093314;28;20240;-76
2023/05/17 06:08:18;;;;;;;9.27;3.03;;;9.60;99.90;;;;;;5093279;28;20178;-76
2023/05/17 06:10:45;;;;;;;14.77;2.80;;;9.60;99.90;;;;;;5093191;28;20647;-76
2023/05/17 06:13:11;;;;;;;7.53;2.30;;;9.60;99.90;;;;;;5094450;28;20202;-76
2023/05/17 06:15:36;;;;;;;10.47;2.63;;;9.70;99.90;;;;;;5094394;28;20551;-76
2023/05/17 06:18:02;;;;;;;12.03;3.80;;;9.70;99.90;;;;;;5093158;28;20175;-76
2023/05/17 06:20:27;;;;;;;15.23;2.97;;;9.80;99.90;;;;;;5094403;28;20592;-77
2023/05/17 06:22:53;;;;;;;12.33;2.67;;;9.90;99.90;;;;;;5092931;28;20193;-77
2023/05/17 06:25:18;;;;;;;12.53;2.70;;;10.00;99.90;;;;;;5095123;28;20663;-77
2023/05/17 06:27:44;;;;;;;13.73;2.57;;;10.00;99.90;;;;;;5095150;28;20174;-77
2023/05/17 06:30:11;;;;;;;12.73;2.40;;;10.10;99.90;;;;;;5093902;28;20239;-76
2023/05/17 06:32:36;;;;;;;9.00;2.07;;;10.20;99.90;;;;;;5093551;28;20178;-76
2023/05/17 06:35:02;;;;;;;8.43;2.30;;;10.10;99.90;;;;;;5093914;28;20189;-77
2023/05/17 06:37:27;;;;;;;8.27;2.20;;;10.20;1.00;;;;;;5095668;28;20185;-78
2023/05/17 06:40:02;;;;;;;8.40;2.33;;;10.20;21.80;;;;;;5095722;28;20178;-77
2023/05/17 06:42:27;;;;;;;13.37;2.60;;;10.30;99.90;;;;;;5095693;28;20151;-77
2023/05/17 06:44:53;;;;;;;11.27;2.63;;;10.30;99.90;;;;;;5095032;28;20193;-76
2023/05/17 06:47:18;;;;;;;8.30;2.30;;;10.40;99.90;;;;;;5095014;28;20174;-76
2023/05/17 06:49:44;;;;;;;11.03;2.37;;;10.50;99.90;;;;;;5094867;28;20214;-76
2023/05/17 06:52:10;;;;;;;18.87;2.60;;;10.50;99.90;;;;;;5094710;28;20227;-76
2023/05/17 06:54:36;;;;;;;14.07;2.60;;;10.50;99.90;;;;;;5093024;28;20213;-76
2023/05/17 06:57:01;;;;;;;8.13;2.00;;;10.50;99.90;;;;;;5092790;28;20169;-77
2023/05/17 06:59:27;;;;;;;10.33;2.10;;;10.60;99.90;;;;;;5093355;28;20654;-77
2023/05/17 07:01:53;;;;;;;12.17;2.63;;;10.60;99.90;;;;;;5093261;28;20185;-77
2023/05/17 07:04:19;;;;;;;12.33;1.93;;;10.70;99.90;;;;;;5093074;28;20198;-77
2023/05/17 07:06:45;;;;;;;7.47;2.37;;;10.80;99.90;;;;;;5093800;28;20529;-78
2023/05/17 07:09:11;;;;;;;7.57;2.10;;;10.80;99.90;;;;;;5094996;28;20174;-77
2023/05/17 07:11:36;;;;;;;12.20;2.23;;;10.90;99.90;;;;;;5093241;28;20174;-77
2023/05/17 07:14:02;;;;;;;9.17;1.80;;;10.90;99.90;;;;;;5093356;28;20198;-78
2023/05/17 07:16:27;;;;;;;10.10;2.13;;;11.00;99.90;;;;;;5095175;28;20171;-77
2023/05/17 07:18:53;;;;;;;10.70;2.57;;;11.00;99.90;;;;;;5096904;28;20166;-78
2023/05/17 07:21:18;;;;;;;6.57;1.70;;;11.00;14.70;;;;;;5095501;28;20181;-77
2023/05/17 07:23:44;;;;;;;10.33;2.30;;;11.00;99.80;;;;;;5094779;28;20198;-77
2023/05/17 07:26:09;;;;;;;11.57;2.20;;;11.00;99.90;;;;;;5093138;28;20194;-78
2023/05/17 07:28:35;;;;;;;9.63;1.63;;;11.00;99.90;;;;;;5094790;28;20178;-76
2023/05/17 07:31:00;;;;;;;14.93;2.00;;;11.10;99.90;;;;;;5094687;28;20224;-77
2023/05/17 07:33:26;;;;;;;14.17;2.30;;;11.10;99.90;;;;;;5094187;28;20261;-78
2023/05/17 07:35:52;;;;;;;7.27;2.27;;;11.20;99.90;;;;;;5093517;28;20587;-78
2023/05/17 07:38:18;;;;;;;12.07;2.13;;;11.30;99.90;;;;;;5094850;28;20216;-77
2023/05/17 07:40:43;;;;;;;6.40;1.90;;;11.40;99.90;;;;;;5094575;28;20177;-77
2023/05/17 07:43:09;;;;;;;8.73;2.00;;;11.50;99.90;;;;;;5094481;28;20178;-77
2023/05/17 07:45:34;;;;;;;9.67;2.03;;;11.50;1.00;;;;;;5092646;28;20197;-77
2023/05/17 07:48:00;;;;;;;8.43;2.23;;;11.70;75.90;;;;;;5092824;28;20666;-77
2023/05/17 07:50:26;;;;;;;5.17;2.00;;;11.80;99.90;;;;;;5092781;28;20663;-77
2023/05/17 07:52:52;;;;;;;10.70;2.03;;;11.80;1.00;;;;;;5093898;28;20194;-78
2023/05/17 07:55:18;;;;;;;9.53;2.30;;;11.80;1.00;;;;;;5094463;28;20220;-77
2023/05/17 07:57:46;;;;;;;9.80;2.50;;;11.90;1.00;;;;;;5094188;28;20177;-78
2023/05/17 08:00:12;;;;;;;7.10;2.03;;;11.90;1.00;;;;;;5094432;28;20166;-78
2023/05/17 08:02:39;;;;;;;8.33;1.63;;;11.80;1.00;;;;;;5093779;28;20249;-77
2023/05/17 08:05:04;;;;;;;11.20;3.20;;;11.80;1.00;;;;;;5092348;28;20201;-78
2023/05/17 08:07:30;;;;;;;6.77;1.70;;;11.80;1.00;;;;;;5094290;28;20166;-77
2023/05/17 08:09:55;;;;;;;11.10;2.53;;;11.80;1.00;;;;;;5092383;28;20174;-78
2023/05/17 08:12:21;;;;;;;9.37;2.30;;;11.80;1.00;;;;;;5094019;28;20201;-77
2023/05/17 08:14:46;;;;;;;5.77;1.70;;;11.90;1.00;;;;;;5092190;28;20237;-77
2023/05/17 08:17:12;;;;;;;10.60;2.20;;;11.90;1.00;;;;;;5094298;28;20179;-78
2023/05/17 08:19:38;;;;;;;11.23;1.83;;;12.10;1.00;;;;;;5094073;28;20170;-77
2023/05/17 08:22:03;;;;;;;9.60;2.00;;;12.10;1.00;;;;;;5094272;28;20260;-78
2023/05/17 08:24:29;;;;;;;10.60;1.80;;;12.30;1.00;;;;;;5094526;28;20515;-78
2023/05/17 08:26:55;;;;;;;7.03;1.97;;;12.40;1.00;;;;;;5092543;28;20174;-78
2023/05/17 08:29:21;;;;;;;7.60;1.70;;;12.50;1.00;;;;;;5094257;28;20169;-77
2023/05/17 08:31:46;;;;;;;7.63;2.40;;;12.60;1.00;;;;;;5093978;28;20677;-77
2023/05/17 08:34:12;;;;;;;10.57;2.37;;;12.80;99.90;;;;;;5093966;28;20221;-78
2023/05/17 08:36:37;;;;;;;11.73;2.27;;;12.90;1.00;;;;;;5094334;28;20203;-77
2023/05/17 08:39:03;;;;;;;11.13;2.43;;;12.90;1.00;;;;;;5094061;28;20262;-77
2023/05/17 08:41:29;;;;;;;13.07;2.27;;;13.00;1.00;;;;;;5094558;28;20215;-78
2023/05/17 08:43:55;;;;;;;10.70;2.47;;;13.00;1.00;;;;;;5092331;28;20557;-77
2023/05/17 08:46:22;;;;;;;12.60;2.20;;;13.10;1.00;;;;;;5095259;28;20580;-77
2023/05/17 08:48:52;;;;;;;7.50;1.70;;;13.10;1.00;;;;;;5098190;28;20291;-77
2023/05/17 08:51:19;;;;;;;8.73;2.20;;;13.10;1.00;;;;;;5098753;28;20239;-78
2023/05/17 08:53:46;;;;;;;13.10;1.97;;;13.00;1.00;;;;;;5098190;28;20688;-77
2023/05/17 08:56:14;;;;;;;7.97;1.77;;;13.10;1.00;;;;;;5098319;28;20607;-77
2023/05/17 08:58:42;;;;;;;8.10;2.20;;;13.10;99.90;;;;;;5098942;28;20611;-77
2023/05/17 09:01:08;;;;;;;6.07;1.87;;;13.30;99.90;;;;;;5097162;28;20192;-78
2023/05/17 09:03:35;;;;;;;8.23;2.03;;;13.30;99.90;;;;;;5098971;28;20174;-78
2023/05/17 09:06:02;;;;;;;10.30;2.63;;;13.50;99.90;;;;;;5096965;28;20623;-78
2023/05/17 09:08:28;;;;;;;12.27;2.90;;;13.50;99.90;;;;;;5097941;28;20179;-77
2023/05/17 09:10:55;;;;;;;10.07;2.47;;;13.50;99.90;;;;;;5096503;28;20227;-77
2023/05/17 09:13:21;;;;;;;19.13;3.27;;;13.40;99.90;;;;;;5098930;28;20190;-78
2023/05/17 09:15:50;;;;;;;6.87;1.97;;;13.20;99.90;;;;;;5098014;28;20562;-78
2023/05/17 09:18:16;;;;;;;12.47;2.37;;;13.10;99.90;;;;;;5096495;28;20182;-78
2023/05/17 09:20:48;;;;;;;7.77;2.27;;;13.00;99.90;;;;;;5098039;28;20224;-78
2023/05/17 09:23:14;;;;;;;9.27;2.17;;;13.00;1.00;;;;;;5098372;28;20186;-78
2023/05/17 09:25:47;;;;;;;8.40;2.33;;;12.90;1.00;;;;;;5098552;28;20189;-78
2023/05/17 09:28:13;;;;;;;10.50;2.50;;;12.80;1.00;;;;;;5098596;28;20171;-79
2023/05/17 09:30:40;;;;;;;8.73;2.20;;;12.80;1.00;;;;;;5098574;28;20227;-78
2023/05/17 09:33:07;;;;;;;8.53;2.43;;;12.80;1.00;;;;;;5100795;28;20210;-78
2023/05/17 09:35:35;;;;;;;16.17;2.20;;;12.90;1.00;;;;;;5112332;28;20194;-77
2023/05/17 09:38:08;;;;;;;9.50;2.57;;;13.00;1.00;;;;;;5110750;28;20172;-77
2023/05/17 09:40:46;;;;;;;9.13;1.83;;;13.10;1.00;;;;;;5098254;28;20245;-77
2023/05/17 09:43:15;;;;;;;12.23;2.03;;;13.10;99.90;;;;;;5096012;28;20243;-78
2023/05/17 09:45:40;;;;;;;8.90;1.87;;;13.20;99.90;;;;;;5097195;28;20259;-78
2023/05/17 09:48:14;;;;;;;9.27;1.70;;;13.30;99.90;;;;;;5097830;28;20639;-77
2023/05/17 09:50:44;;;;;;;8.47;2.23;;;13.30;1.00;;;;;;5098258;28;20170;-78
2023/05/17 09:53:30;;;;;;;9.80;2.43;;;13.20;1.00;;;;;;5097792;28;20224;-78
2023/05/17 09:56:00;;;;;;;12.43;3.10;;;13.00;1.00;;;;;;5098495;28;20265;-78
2023/05/17 09:58:27;;;;;;;8.53;2.47;;;13.00;99.90;;;;;;5095368;28;20190;-78
2023/05/17 10:01:01;;;;;;;12.13;2.40;;;13.10;99.90;;;;;;5097647;28;20592;-77
2023/05/17 10:03:34;;;;;;;10.67;2.30;;;13.20;99.90;;;;;;5095950;28;20173;-78
2023/05/17 10:06:07;;;;;;;8.17;2.37;;;13.30;76.70;;;;;;5096164;28;20243;-78
2023/05/17 10:08:33;;;;;;;7.47;1.93;;;13.40;1.00;;;;;;5097547;28;20181;-77
2023/05/17 10:11:04;;;;;;;11.07;2.03;;;13.50;22.10;;;;;;5097284;28;20166;-78
2023/05/17 10:13:35;;;;;;;16.03;2.40;;;13.50;21.40;;;;;;5096540;28;20182;-78
2023/05/17 10:16:02;;;;;;;8.13;2.00;;;13.50;77.80;;;;;;5097583;28;20201;-77
2023/05/17 10:18:28;;;;;;;7.23;1.77;;;13.60;99.90;;;;;;5098070;28;20170;-78
2023/05/17 10:20:54;;;;;;;8.37;2.77;;;13.70;99.90;;;;;;5097635;28;20177;-77
2023/05/17 10:23:21;;;;;;;4.70;1.47;;;13.90;91.60;;;;;;5095054;28;20190;-77
2023/05/17 10:25:47;;;;;;;9.43;1.97;;;13.90;99.90;;;;;;5096591;28;20198;-76
2023/05/17 10:28:16;;;;;;;9.70;1.80;;;14.10;99.90;;;;;;5096438;28;20171;-78
2023/05/17 10:30:42;;;;;;;6.50;1.60;;;14.10;99.90;;;;;;5097172;28;20166;-78
2023/05/17 10:33:11;;;;;;;7.33;2.37;;;14.10;99.90;;;;;;5095242;28;20270;-77
2023/05/17 10:35:39;;;;;;;6.20;1.77;;;14.20;99.90;;;;;;5094789;28;20186;-78
2023/05/17 10:38:05;;;;;;;11.67;2.10;;;14.20;50.80;;;;;;5096766;28;20162;-77
2023/05/17 10:40:31;;;;;;;7.27;1.90;;;14.00;1.00;;;;;;5095126;28;20166;-77
2023/05/17 10:42:58;;;;;;;5.97;1.77;;;14.00;99.90;;;;;;5097469;28;20312;-78
2023/05/17 10:45:25;;;;;;;6.87;2.33;;;14.10;99.90;;;;;;5095013;28;20198;-78
2023/05/17 10:47:51;;;;;;;4.07;1.53;;;14.10;99.90;;;;;;5096683;28;20201;-77
2023/05/17 10:50:24;;;;;;;8.37;1.80;;;14.00;1.00;;;;;;5095341;28;20175;-78
2023/05/17 10:52:51;;;;;;;5.43;2.20;;;13.80;1.00;;;;;;5094999;28;20179;-77
2023/05/17 10:58:38;;;;;;;9.33;2.17;;;13.90;99.90;;;;;;5096418;28;20196;-78
2023/05/17 11:01:06;;;;;;;7.50;2.33;;;13.80;17.60;;;;;;5096318;28;20666;-78
2023/05/17 11:03:33;;;;;;;7.13;1.67;;;13.70;99.90;;;;;;5096796;28;20167;-77
2023/05/17 11:06:17;;;;;;;5.47;1.80;;;13.80;99.90;;;;;;5096619;28;20182;-79
2023/05/17 11:08:46;;;;;;;7.17;1.97;;;13.80;99.90;;;;;;5096702;28;20168;-79
2023/05/17 11:11:18;;;;;;;6.33;2.07;;;13.90;1.00;;;;;;5097080;28;20162;-77
2023/05/17 11:13:53;;;;;;;8.43;1.73;;;14.00;36.20;;;;;;5096808;28;20270;-78
2023/05/17 11:16:27;;;;;;;6.63;2.60;;;13.90;1.00;;;;;;5096295;28;20192;-78
2023/05/17 11:18:54;;;;;;;6.60;1.87;;;14.00;1.00;;;;;;5095379;28;20257;-77
2023/05/17 11:21:21;;;;;;;10.50;2.00;;;13.90;1.00;;;;;;5095187;28;20174;-78
2023/05/17 11:23:52;;;;;;;7.93;1.83;;;14.00;1.00;;;;;;5096285;28;20205;-78
2023/05/17 11:26:35;;;;;;;7.37;1.93;;;14.10;1.00;;;;;;5096388;28;20190;-78
2023/05/17 11:29:07;;;;;;;6.83;2.27;;;14.20;1.00;;;;;;5095186;28;20245;-77
2023/05/17 11:31:35;;;;;;;5.53;2.50;;;14.40;1.00;;;;;;5095924;28;20178;-78
2023/05/17 11:34:04;;;;;;;6.10;2.17;;;14.40;1.00;;;;;;5112947;28;20185;-78
2023/05/17 11:36:30;;;;;;;9.10;2.70;;;14.50;1.00;;;;;;5116495;28;20168;-78
2023/05/17 11:39:12;;;;;;;9.33;2.50;;;14.40;99.90;;;;;;5116670;28;20254;-78
2023/05/17 11:41:46;;;;;;;8.80;2.50;;;14.50;1.00;;;;;;5115424;28;20186;-78
2023/05/17 11:44:12;;;;;;;6.37;2.03;;;14.30;1.00;;;;;;5116022;28;20649;-78
2023/05/17 11:46:39;;;;;;;7.67;2.37;;;14.50;1.00;;;;;;5124650;28;20178;-77
2023/05/17 11:49:08;;;;;;;7.37;2.30;;;14.30;1.00;;;;;;5124233;28;20179;-78
2023/05/17 11:51:33;;;;;;;7.30;1.80;;;14.20;1.00;;;;;;5122878;28;20188;-78
2023/05/17 11:54:03;;;;;;;6.70;1.90;;;14.20;1.00;;;;;;5128322;28;20201;-78
2023/05/17 11:56:33;;;;;;;8.27;1.90;;;14.20;1.00;;;;;;5121697;28;20166;-78
2023/05/17 11:58:59;;;;;;;10.23;2.30;;;14.30;99.90;;;;;;5116104;28;20154;-77
2023/05/17 12:01:25;;;;;;;8.03;2.20;;;14.50;1.00;;;;;;5116056;28;20165;-78
2023/05/17 12:03:59;;;;;;;7.80;1.93;;;14.60;1.00;;;;;;5094766;28;20182;-78
2023/05/17 12:06:27;;;;;;;7.10;2.03;;;14.60;1.00;;;;;;5111114;28;20170;-78
2023/05/17 12:08:53;;;;;;;5.93;2.20;;;14.60;1.00;;;;;;5111045;28;20177;-77
2023/05/17 12:11:20;;;;;;;5.53;1.77;;;14.70;1.00;;;;;;5093559;28;20174;-78
2023/05/17 12:13:47;;;;;;;7.43;1.77;;;14.80;1.00;;;;;;5104898;28;20570;-77
2023/05/17 12:16:14;;;;;;;9.13;2.23;;;14.80;1.00;;;;;;5115982;28;20181;-78
2023/05/17 12:18:42;;;;;;;7.80;2.13;;;15.00;99.90;;;;;;5114251;28;20181;-78
2023/05/17 12:21:09;;;;;;;7.73;1.83;;;14.90;99.90;;;;;;5115574;28;20173;-78
2023/05/17 12:23:36;;;;;;;5.20;1.47;;;15.00;1.00;;;;;;5113641;28;20250;-79
2023/05/17 12:26:13;;;;;;;8.90;1.83;;;15.00;99.90;;;;;;5113983;28;20212;-78
2023/05/17 12:28:43;;;;;;;7.23;1.83;;;15.00;1.00;;;;;;5115009;28;20182;-78
2023/05/17 12:31:17;;;;;;;7.53;1.93;;;15.00;1.00;;;;;;5114113;28;20188;-78
2023/05/17 12:33:43;;;;;;;7.53;1.83;;;14.90;1.00;;;;;;5095713;28;20205;-78
2023/05/17 12:36:10;;;;;;;5.97;1.60;;;15.10;1.00;;;;;;5092337;28;20642;-78
2023/05/17 12:38:38;;;;;;;7.37;2.07;;;15.00;99.90;;;;;;5092557;28;20173;-77
2023/05/17 12:41:07;;;;;;;4.63;1.87;;;15.10;99.90;;;;;;5092669;28;20320;-77
2023/05/17 12:43:33;;;;;;;5.10;1.90;;;15.10;99.90;;;;;;5093656;28;20167;-78
2023/05/17 12:46:07;;;;;;;8.47;2.13;;;15.10;1.00;;;;;;5092348;28;20198;-76
2023/05/17 12:48:34;;;;;;;7.23;2.07;;;15.10;99.90;;;;;;5094767;28;20159;-77
2023/05/17 12:51:09;;;;;;;10.23;2.20;;;15.20;99.90;;;;;;5096101;28;20201;-78
2023/05/17 12:53:39;;;;;;;7.73;2.10;;;15.20;1.00;;;;;;5095684;28;20198;-78